createdAt,value
2022-08-31T00:03:36.272Z,56.4
2022-08-31T00:18:04.407Z,56
2022-08-31T00:32:31.734Z,56.2
2022-08-31T00:46:59.889Z,57.1
2022-08-31T01:01:27.999Z,56.9
2022-08-31T01:15:56.836Z,57
2022-08-31T01:30:27.012Z,58.8
2022-08-31T01:44:54.182Z,56.6
2022-08-31T01:59:28.338Z,58.4
2022-08-31T02:13:49.007Z,63.2
2022-08-31T02:28:22.440Z,64.9
2022-08-31T02:42:54.238Z,63
2022-08-31T02:57:16.406Z,67.5
2022-08-31T03:11:43.199Z,68.6
2022-08-31T03:26:06.592Z,82.6
2022-08-31T03:40:34.468Z,78.7
2022-08-31T03:55:02.389Z,75.4
2022-08-31T04:09:28.772Z,75.6
2022-08-31T04:24:01.301Z,75.2
2022-08-31T04:38:30.434Z,85.4
2022-08-31T04:53:04.222Z,78.9
2022-08-31T05:07:30.422Z,78.3
2022-08-31T05:22:00.351Z,80
2022-08-31T05:36:24.353Z,81.3
2022-08-31T05:50:52.159Z,81.7
2022-08-31T06:05:19.600Z,77.7
2022-08-31T06:19:48.372Z,79.8
2022-08-31T06:34:11.747Z,82.9
2022-08-31T06:48:46.136Z,78.6
2022-08-31T07:03:18.570Z,73.8
2022-08-31T07:17:43.549Z,72.7
2022-08-31T07:32:19.556Z,70.3
2022-08-31T07:46:49.964Z,67.5
2022-08-31T08:01:17.192Z,63.5
2022-08-31T08:15:53.321Z,59.4
2022-08-31T08:30:24.178Z,58.5
2022-08-31T08:44:49.190Z,56
2022-08-31T08:59:20.798Z,52.7
2022-08-31T09:13:48.327Z,51.6
2022-08-31T09:28:16.819Z,50.4
2022-08-31T09:42:48.487Z,48.6
2022-08-31T09:57:15.223Z,49
2022-08-31T10:11:43.740Z,47.2
2022-08-31T10:26:11.567Z,46
2022-08-31T10:40:44.721Z,46.7
2022-08-31T10:55:14.570Z,46
2022-08-31T11:09:38.424Z,45.8
2022-08-31T11:24:08.776Z,43.3
2022-08-31T11:38:34.706Z,43.2
2022-08-31T11:53:05.971Z,41.9
2022-08-31T12:07:32.850Z,42.3
2022-08-31T12:22:00.082Z,42.6
2022-08-31T12:36:22.439Z,43.3
2022-08-31T12:50:53.198Z,41.6
2022-08-31T13:05:16.316Z,41.7
2022-08-31T13:19:45.869Z,41.6
2022-08-31T13:34:15.468Z,39.9
2022-08-31T13:48:42.521Z,39.7
2022-08-31T14:03:10.894Z,40.5
2022-08-31T14:17:38.877Z,39.6
2022-08-31T14:32:03.089Z,41.1
2022-08-31T14:46:30.227Z,41.5
2022-08-31T15:01:01.830Z,37.8
2022-08-31T15:15:30.988Z,37.2
2022-08-31T15:29:57.436Z,39.2
2022-08-31T15:44:25.026Z,39.4
2022-08-31T15:58:52.043Z,39.7
2022-08-31T16:13:20.430Z,40.6
2022-08-31T16:27:47.202Z,41.3
2022-08-31T16:42:14.089Z,42.7
2022-08-31T16:56:41.784Z,44
2022-08-31T17:11:11.936Z,42.6
2022-08-31T17:25:39.518Z,41.8
2022-08-31T17:40:05.262Z,42.8
2022-08-31T17:54:31.976Z,43.3
2022-08-31T18:08:58.851Z,44
2022-08-31T18:23:31.990Z,44.4
2022-08-31T18:38:01.610Z,45.3
2022-08-31T18:52:25.699Z,46.3
2022-08-31T19:06:53.010Z,46.5
2022-08-31T19:21:24.256Z,47
2022-08-31T19:35:51.129Z,47
2022-08-31T19:50:19.245Z,47.4
2022-08-31T20:04:47.165Z,48.1
2022-08-31T20:19:14.417Z,49.3
2022-08-31T20:33:41.885Z,49.9
2022-08-31T20:48:21.491Z,49.9
2022-08-31T21:02:47.829Z,51.7
2022-08-31T21:17:10.151Z,52.5
2022-08-31T21:31:48.091Z,53.1
2022-08-31T21:46:17.400Z,53.1
2022-08-31T22:00:44.289Z,54.9
2022-08-31T22:15:11.312Z,55.3
2022-08-31T22:29:43.539Z,56.8
2022-08-31T22:44:12.191Z,56.5
2022-08-31T22:58:34.538Z,58.3
2022-08-31T23:13:02.393Z,58.2
2022-08-31T23:27:30.900Z,58.6
2022-08-31T23:41:59.462Z,59.2
2022-08-31T23:56:26.244Z,60
